createdAt,value
2022-09-12T00:02:27.428Z,99.90
2022-09-12T00:06:44.735Z,99.90
2022-09-12T00:11:06.911Z,99.90
2022-09-12T00:15:24.108Z,99.90
2022-09-12T00:19:41.315Z,99.90
2022-09-12T00:23:58.441Z,99.90
2022-09-12T00:28:17.669Z,99.90
2022-09-12T00:32:34.808Z,99.90
2022-09-12T00:36:51.983Z,99.90
2022-09-12T00:41:28.172Z,99.90
2022-09-12T00:45:45.710Z,99.90
2022-09-12T00:50:12.461Z,99.90
2022-09-12T00:54:35.924Z,99.90
2022-09-12T00:59:02.438Z,99.90
2022-09-12T01:03:23.025Z,99.90
2022-09-12T01:07:40.796Z,99.90
2022-09-12T01:11:59.028Z,99.90
2022-09-12T01:16:16.586Z,99.90
2022-09-12T01:20:42.381Z,99.90
2022-09-12T01:25:07.641Z,99.90
2022-09-12T01:30:03.671Z,99.90
2022-09-12T01:34:30.949Z,99.90
2022-09-12T01:38:53.007Z,99.90
2022-09-12T01:43:33.465Z,99.90
2022-09-12T01:47:59.111Z,99.90
2022-09-12T01:52:20.039Z,99.90
2022-09-12T01:56:40.062Z,99.90
2022-09-12T02:01:23.076Z,99.90
2022-09-12T02:05:47.052Z,99.90
2022-09-12T02:10:13.843Z,99.90
2022-09-12T02:14:39.496Z,99.90
2022-09-12T02:19:03.799Z,99.90
2022-09-12T02:23:26.419Z,99.90
2022-09-12T02:27:48.316Z,99.90
2022-09-12T02:32:12.514Z,99.90
2022-09-12T02:36:35.089Z,99.90
2022-09-12T02:40:52.510Z,99.90
2022-09-12T02:45:12.385Z,99.90
2022-09-12T02:49:29.546Z,99.90
2022-09-12T02:53:46.711Z,99.90
2022-09-12T02:58:06.743Z,99.90
2022-09-12T03:02:55.896Z,99.90
2022-09-12T03:07:33.952Z,99.90
2022-09-12T03:12:11.872Z,99.90
2022-09-12T03:16:56.497Z,99.90
2022-09-12T03:21:55.919Z,99.90
2022-09-12T03:26:19.697Z,99.90
2022-09-12T03:30:48.236Z,99.90
2022-09-12T03:35:06.225Z,99.90
2022-09-12T03:39:27.881Z,99.90
2022-09-12T03:43:45.853Z,99.90
2022-09-12T03:48:04.529Z,99.90
2022-09-12T03:52:21.817Z,99.90
2022-09-12T03:56:41.534Z,99.90
2022-09-12T04:00:58.710Z,99.90
2022-09-12T04:05:15.908Z,99.90
2022-09-12T04:09:33.073Z,99.90
2022-09-12T04:13:50.753Z,99.90
2022-09-12T04:18:08.022Z,99.90
2022-09-12T04:22:25.279Z,99.90
2022-09-12T04:26:42.482Z,99.90
2022-09-12T04:31:08.983Z,99.90
2022-09-12T04:35:26.878Z,99.90
2022-09-12T04:39:44.082Z,99.90
2022-09-12T04:44:04.179Z,99.90
2022-09-12T04:48:21.328Z,99.90
2022-09-12T04:52:38.510Z,99.90
2022-09-12T04:56:55.923Z,99.90
2022-09-12T05:01:15.567Z,99.90
2022-09-12T05:05:32.761Z,99.90
2022-09-12T05:09:49.931Z,99.90
2022-09-12T05:14:08.138Z,99.90
2022-09-12T05:18:26.554Z,99.90
2022-09-12T05:22:43.697Z,99.90
2022-09-12T05:27:01.171Z,99.90
2022-09-12T05:31:21.096Z,99.90
2022-09-12T05:35:38.404Z,99.90
2022-09-12T05:39:55.649Z,99.90
2022-09-12T05:44:14.308Z,99.90
2022-09-12T05:48:31.489Z,99.90
2022-09-12T05:52:48.698Z,99.90
2022-09-12T05:57:05.896Z,99.90
2022-09-12T06:01:24.186Z,99.90
2022-09-12T06:05:41.415Z,99.90
2022-09-12T06:10:01.696Z,99.90
2022-09-12T06:14:19.459Z,99.90
2022-09-12T06:18:37.617Z,99.90
2022-09-12T06:22:54.757Z,99.90
2022-09-12T06:27:11.951Z,99.90
2022-09-12T06:31:35.105Z,99.90
2022-09-12T06:35:52.223Z,99.90
2022-09-12T06:40:10.182Z,99.90
2022-09-12T06:44:27.378Z,99.90
2022-09-12T06:48:45.312Z,99.90
2022-09-12T06:53:02.562Z,99.90
2022-09-12T06:57:19.740Z,99.90
2022-09-12T07:01:36.911Z,99.90
2022-09-12T07:05:54.096Z,99.90
2022-09-12T07:10:12.412Z,99.90
2022-09-12T07:14:29.603Z,99.90
2022-09-12T07:18:51.537Z,99.90
2022-09-12T07:23:08.982Z,99.90
2022-09-12T07:27:26.252Z,99.90
2022-09-12T07:31:43.932Z,99.90
2022-09-12T07:36:03.610Z,99.90
2022-09-12T07:40:21.795Z,99.90
2022-09-12T07:44:38.917Z,99.90
2022-09-12T07:48:57.943Z,99.90
2022-09-12T07:53:15.147Z,99.90
2022-09-12T07:57:32.337Z,99.90
2022-09-12T08:01:49.521Z,99.90
2022-09-12T08:06:12.290Z,99.90
2022-09-12T08:10:29.426Z,99.90
2022-09-12T08:14:46.837Z,99.90
2022-09-12T08:19:04.449Z,99.90
2022-09-12T08:23:23.450Z,99.90
2022-09-12T08:27:42.894Z,99.90
2022-09-12T08:32:00.223Z,99.90
2022-09-12T08:36:21.643Z,99.90
2022-09-12T08:40:58.778Z,99.90
2022-09-12T08:45:34.746Z,99.90
2022-09-12T08:49:56.995Z,99.90
2022-09-12T08:54:21.459Z,99.90
2022-09-12T08:58:44.363Z,99.90
2022-09-12T09:03:50.904Z,99.90
2022-09-12T09:08:22.771Z,99.90
2022-09-12T09:13:02.359Z,99.90
2022-09-12T09:17:25.383Z,99.90
2022-09-12T09:21:54.440Z,99.90
2022-09-12T09:26:17.673Z,99.90
2022-09-12T09:30:35.961Z,99.90
2022-09-12T09:34:53.190Z,99.90
2022-09-12T09:39:16.300Z,99.90
2022-09-12T09:43:33.554Z,98.70
2022-09-12T09:48:20.959Z,97.90
2022-09-12T09:52:39.581Z,93.50
2022-09-12T09:56:56.734Z,94.20
2022-09-12T10:01:19.119Z,93.50
2022-09-12T10:05:45.996Z,91.70
2022-09-12T10:10:16.382Z,88.00
2022-09-12T10:14:39.404Z,88.80
2022-09-12T10:18:59.415Z,88.60
2022-09-12T10:23:19.539Z,77.70
2022-09-12T10:27:36.893Z,74.20
2022-09-12T10:31:58.758Z,83.30
2022-09-12T10:36:16.212Z,73.80
2022-09-12T10:40:40.755Z,80.00
2022-09-12T10:44:58.085Z,85.50
2022-09-12T10:49:26.104Z,87.70
2022-09-12T10:53:45.610Z,80.30
2022-09-12T10:58:32.721Z,80.70
2022-09-12T11:03:17.525Z,78.20
2022-09-12T11:07:47.730Z,81.20
2022-09-12T11:12:15.837Z,74.10
2022-09-12T11:16:52.809Z,73.60
2022-09-12T11:21:34.713Z,75.30
2022-09-12T11:26:26.372Z,75.70
2022-09-12T11:31:08.694Z,70.70
2022-09-12T11:35:31.045Z,71.70
2022-09-12T11:39:55.392Z,70.40
2022-09-12T11:44:22.988Z,69.60
2022-09-12T11:49:06.884Z,63.20
2022-09-12T11:53:30.677Z,63.70
2022-09-12T11:57:55.049Z,62.20
2022-09-12T12:02:19.913Z,69.30
2022-09-12T12:07:07.351Z,72.10
2022-09-12T12:11:39.432Z,61.10
2022-09-12T12:16:04.134Z,66.90
2022-09-12T12:20:23.297Z,61.10
2022-09-12T12:25:03.788Z,67.60
2022-09-12T12:29:39.258Z,62.30
2022-09-12T12:34:04.041Z,65.90
2022-09-12T12:38:38.807Z,62.00
2022-09-12T12:43:04.690Z,61.30
2022-09-12T12:47:50.281Z,67.90
2022-09-12T12:52:17.163Z,68.60
2022-09-12T12:56:42.251Z,71.20
2022-09-12T13:01:21.396Z,67.70
2022-09-12T13:05:41.723Z,69.70
2022-09-12T13:10:00.643Z,64.70
2022-09-12T13:14:42.399Z,63.90
2022-09-12T13:19:05.872Z,66.40
2022-09-12T13:23:32.404Z,65.40
2022-09-12T13:28:09.437Z,66.00
2022-09-12T13:32:27.133Z,62.40
2022-09-12T13:37:16.547Z,68.40
2022-09-12T13:41:45.453Z,67.90
2022-09-12T13:46:02.753Z,68.30
2022-09-12T13:50:25.026Z,67.50
2022-09-12T13:54:45.626Z,65.50
2022-09-12T13:59:03.081Z,66.40
2022-09-12T14:04:07.858Z,63.80
2022-09-12T14:08:25.310Z,66.00
2022-09-12T14:12:43.952Z,69.40
2022-09-12T14:17:01.036Z,67.80
2022-09-12T14:21:30.462Z,71.90
2022-09-12T14:25:48.740Z,68.00
2022-09-12T14:30:14.649Z,65.40
2022-09-12T14:34:31.914Z,72.80
2022-09-12T14:39:03.255Z,72.90
2022-09-12T14:43:26.635Z,74.00
2022-09-12T14:47:50.048Z,73.00
2022-09-12T14:52:23.269Z,80.40
2022-09-12T14:56:43.597Z,81.20
2022-09-12T15:01:23.355Z,83.20
2022-09-12T15:05:49.356Z,82.50
2022-09-12T15:10:26.224Z,83.50
2022-09-12T15:14:43.335Z,85.80
2022-09-12T15:19:00.453Z,85.40
2022-09-12T15:23:31.156Z,83.20
2022-09-12T15:27:50.283Z,85.20
2022-09-12T15:32:15.026Z,86.90
2022-09-12T15:36:32.242Z,88.40
2022-09-12T15:40:53.563Z,85.30
2022-09-12T15:45:27.299Z,87.80
2022-09-12T15:49:44.395Z,90.00
2022-09-12T15:54:03.467Z,92.20
2022-09-12T15:58:20.713Z,93.50
2022-09-12T16:02:37.928Z,92.10
2022-09-12T16:06:56.615Z,92.90
2022-09-12T16:11:25.861Z,96.00
2022-09-12T16:15:42.986Z,97.80
2022-09-12T16:20:00.153Z,95.90
2022-09-12T16:24:17.277Z,97.30
2022-09-12T16:28:34.448Z,99.70
2022-09-12T16:32:52.536Z,99.80
2022-09-12T16:37:09.876Z,99.90
2022-09-12T16:41:27.024Z,99.90
2022-09-12T16:45:44.709Z,99.90
2022-09-12T16:50:01.910Z,99.90
2022-09-12T16:54:19.485Z,99.90
2022-09-12T16:58:41.749Z,99.90
2022-09-12T17:02:59.401Z,99.90
2022-09-12T17:07:17.343Z,99.90
2022-09-12T17:11:38.076Z,99.90
2022-09-12T17:15:55.636Z,99.90
2022-09-12T17:20:12.866Z,99.90
2022-09-12T17:24:30.369Z,99.90
2022-09-12T17:28:47.664Z,99.90
2022-09-12T17:33:05.239Z,99.90
2022-09-12T17:37:22.672Z,99.90
2022-09-12T17:41:42.550Z,99.90
2022-09-12T17:45:59.746Z,99.90
2022-09-12T17:50:31.262Z,99.90
2022-09-12T17:54:49.493Z,99.90
2022-09-12T17:59:08.330Z,99.90
2022-09-12T18:03:25.745Z,99.90
2022-09-12T18:07:44.258Z,99.90
2022-09-12T18:12:01.729Z,99.90
2022-09-12T18:16:18.961Z,99.90
2022-09-12T18:20:36.131Z,99.90
2022-09-12T18:24:53.236Z,99.90
2022-09-12T18:29:10.719Z,99.90
2022-09-12T18:33:28.105Z,99.90
2022-09-12T18:37:45.228Z,99.90
2022-09-12T18:42:02.345Z,99.90
2022-09-12T18:46:19.907Z,99.90
2022-09-12T18:50:37.090Z,99.90
2022-09-12T18:54:54.201Z,99.90
2022-09-12T18:59:14.059Z,99.90
2022-09-12T19:03:31.228Z,99.90
2022-09-12T19:07:49.464Z,99.90
2022-09-12T19:12:06.943Z,99.90
2022-09-12T19:16:27.537Z,99.90
2022-09-12T19:20:44.670Z,99.90
2022-09-12T19:25:01.793Z,99.90
2022-09-12T19:29:19.138Z,99.90
2022-09-12T19:33:36.855Z,99.90
2022-09-12T19:37:54.177Z,99.90
2022-09-12T19:42:11.988Z,99.90
2022-09-12T19:46:29.338Z,99.90
2022-09-12T19:50:47.133Z,99.90
2022-09-12T19:55:04.565Z,99.90
2022-09-12T19:59:21.742Z,99.90
2022-09-12T20:03:39.623Z,99.90
2022-09-12T20:07:57.919Z,99.90
2022-09-12T20:12:15.206Z,99.90
2022-09-12T20:16:33.457Z,99.90
2022-09-12T20:20:50.836Z,99.90
2022-09-12T20:25:08.685Z,99.90
2022-09-12T20:29:25.845Z,99.90
2022-09-12T20:33:43.227Z,99.90
2022-09-12T20:38:00.378Z,99.90
2022-09-12T20:42:17.549Z,99.90
2022-09-12T20:46:35.011Z,99.90
2022-09-12T20:50:52.243Z,99.90
2022-09-12T20:55:09.911Z,99.90
2022-09-12T20:59:27.160Z,99.90
2022-09-12T21:03:45.312Z,99.90
2022-09-12T21:08:02.598Z,99.90
2022-09-12T21:12:19.818Z,99.90
2022-09-12T21:16:38.589Z,99.90
2022-09-12T21:20:56.666Z,99.90
2022-09-12T21:25:13.875Z,99.90
2022-09-12T21:29:30.968Z,99.90
2022-09-12T21:33:49.144Z,99.90
2022-09-12T21:38:07.323Z,99.90
2022-09-12T21:42:24.974Z,99.90
2022-09-12T21:46:42.164Z,99.90
2022-09-12T21:50:59.893Z,99.90
2022-09-12T21:55:17.254Z,99.90
2022-09-12T21:59:34.332Z,99.90
2022-09-12T22:03:52.227Z,99.90
2022-09-12T22:08:12.171Z,99.90
2022-09-12T22:12:29.642Z,99.90
2022-09-12T22:16:46.970Z,99.90
2022-09-12T22:21:12.314Z,99.90
2022-09-12T22:25:29.655Z,99.90
2022-09-12T22:29:50.583Z,99.90
2022-09-12T22:34:07.822Z,99.90
2022-09-12T22:38:26.018Z,99.90
2022-09-12T22:42:43.197Z,99.90
2022-09-12T22:47:00.334Z,99.90
2022-09-12T22:51:17.484Z,99.90
2022-09-12T22:55:34.908Z,99.90
2022-09-12T22:59:52.383Z,99.90
2022-09-12T23:04:10.894Z,99.90
2022-09-12T23:08:29.591Z,99.90
2022-09-12T23:12:46.836Z,99.90
2022-09-12T23:17:03.990Z,99.90
2022-09-12T23:21:21.752Z,99.90
2022-09-12T23:25:38.829Z,99.90
2022-09-12T23:29:55.933Z,99.90
2022-09-12T23:34:13.044Z,99.90
2022-09-12T23:38:30.988Z,99.90
2022-09-12T23:42:48.079Z,99.90
2022-09-12T23:47:05.242Z,99.90
2022-09-12T23:51:22.463Z,99.90
2022-09-12T23:55:39.948Z,99.90
2022-09-12T23:59:57.157Z,99.90
